createdAt,value
2017-11-23T00:01:07.521Z,9.81
2017-11-23T00:03:35.848Z,9.90
2017-11-23T00:06:04.187Z,9.98
2017-11-23T00:08:32.538Z,10.13
2017-11-23T00:11:00.915Z,10.17
2017-11-23T00:13:29.255Z,10.08
2017-11-23T00:15:57.588Z,9.97
2017-11-23T00:18:25.934Z,9.98
2017-11-23T00:20:54.255Z,9.96
2017-11-23T00:23:22.718Z,9.96
2017-11-23T00:25:51.048Z,9.87
2017-11-23T00:28:19.386Z,9.96
2017-11-23T00:30:47.811Z,10.09
2017-11-23T00:33:16.326Z,10.04
2017-11-23T00:35:44.752Z,10.19
2017-11-23T00:38:13.147Z,10.24
2017-11-23T00:40:41.590Z,10.38
2017-11-23T00:43:10.138Z,10.42
2017-11-23T00:45:38.670Z,10.45
2017-11-23T00:48:07.093Z,10.34
2017-11-23T00:50:35.443Z,10.19
2017-11-23T00:53:03.779Z,10.24
2017-11-23T00:55:32.115Z,10.29
2017-11-23T00:58:00.464Z,10.18
2017-11-23T01:00:28.847Z,10.03
2017-11-23T01:02:57.188Z,9.96
2017-11-23T01:05:25.527Z,9.92
2017-11-23T01:07:53.896Z,10.04
2017-11-23T01:10:22.246Z,10.02
2017-11-23T01:12:50.589Z,10.06
2017-11-23T01:15:18.924Z,10.00
2017-11-23T01:17:47.264Z,10.04
2017-11-23T01:20:15.633Z,9.98
2017-11-23T01:22:43.967Z,10.02
2017-11-23T01:25:12.310Z,10.08
2017-11-23T01:27:40.655Z,9.95
2017-11-23T01:30:09.012Z,9.90
2017-11-23T01:32:37.372Z,10.06
2017-11-23T01:35:05.727Z,10.03
2017-11-23T01:37:34.067Z,10.02
2017-11-23T01:40:02.405Z,9.98
2017-11-23T01:42:30.771Z,9.91
2017-11-23T01:44:59.130Z,9.91
2017-11-23T01:50:02.075Z,9.76
2017-11-23T01:52:30.420Z,9.75
2017-11-23T01:54:58.772Z,9.65
2017-11-23T01:57:27.111Z,9.68
2017-11-23T01:59:55.437Z,9.56
2017-11-23T02:02:23.796Z,9.46
2017-11-23T02:04:52.119Z,9.49
2017-11-23T02:07:20.467Z,9.52
2017-11-23T02:09:48.828Z,9.50
2017-11-23T02:12:17.160Z,9.52
2017-11-23T02:14:45.538Z,9.54
2017-11-23T02:17:14.744Z,9.45
2017-11-23T02:19:43.085Z,9.51
2017-11-23T02:22:11.437Z,9.54
2017-11-23T02:24:39.784Z,9.52
2017-11-23T02:27:08.148Z,9.61
2017-11-23T02:29:36.482Z,9.66
2017-11-23T02:32:04.821Z,9.63
2017-11-23T02:34:33.163Z,9.57
2017-11-23T02:37:01.514Z,9.56
2017-11-23T02:39:29.883Z,9.40
2017-11-23T02:41:58.211Z,9.38
2017-11-23T02:44:26.549Z,9.44
2017-11-23T02:46:54.904Z,9.44
2017-11-23T02:49:23.241Z,9.58
2017-11-23T02:51:51.616Z,9.53
2017-11-23T02:54:19.948Z,9.47
2017-11-23T02:56:48.280Z,9.52
2017-11-23T02:59:16.611Z,9.39
2017-11-23T03:01:44.952Z,9.34
2017-11-23T03:04:13.329Z,9.37
2017-11-23T03:06:41.672Z,9.26
2017-11-23T03:09:10.024Z,9.41
2017-11-23T03:11:38.363Z,9.32
2017-11-23T03:14:06.701Z,9.25
2017-11-23T03:16:35.163Z,9.22
2017-11-23T03:19:03.513Z,9.21
2017-11-23T03:21:31.859Z,9.01
2017-11-23T03:24:00.201Z,9.02
2017-11-23T03:26:28.532Z,9.03
2017-11-23T03:28:56.877Z,8.91
2017-11-23T03:31:25.353Z,8.75
2017-11-23T03:33:53.687Z,8.62
2017-11-23T03:36:22.032Z,8.63
2017-11-23T03:38:50.373Z,8.68
2017-11-23T03:41:18.712Z,8.70
2017-11-23T03:43:47.171Z,8.55
2017-11-23T03:46:15.508Z,8.73
2017-11-23T03:48:43.855Z,8.83
2017-11-23T03:51:12.208Z,8.87
2017-11-23T03:53:40.560Z,9.04
2017-11-23T03:56:08.927Z,8.85
2017-11-23T03:58:37.271Z,8.71
2017-11-23T04:01:05.611Z,8.78
2017-11-23T04:03:33.958Z,8.83
2017-11-23T04:06:02.350Z,8.71
2017-11-23T04:08:30.680Z,8.75
2017-11-23T04:10:59.027Z,8.70
2017-11-23T04:13:27.377Z,8.84
2017-11-23T04:15:55.716Z,8.67
2017-11-23T04:18:24.096Z,8.79
2017-11-23T04:20:52.440Z,8.72
2017-11-23T04:23:20.774Z,8.74
2017-11-23T04:25:49.117Z,8.76
2017-11-23T04:28:17.457Z,8.64
2017-11-23T04:30:45.824Z,8.68
2017-11-23T04:33:14.163Z,8.68
2017-11-23T04:35:42.500Z,8.54
2017-11-23T04:38:10.838Z,8.53
2017-11-23T04:40:39.174Z,8.52
2017-11-23T04:43:07.540Z,8.60
2017-11-23T04:45:35.871Z,8.69
2017-11-23T04:48:04.227Z,8.68
2017-11-23T04:50:32.564Z,8.71
2017-11-23T04:53:00.913Z,8.65
2017-11-23T04:55:29.279Z,8.82
2017-11-23T04:57:57.631Z,8.91
2017-11-23T05:00:25.977Z,8.97
2017-11-23T05:02:54.333Z,8.81
2017-11-23T05:05:22.667Z,8.90
2017-11-23T05:07:51.033Z,8.94
2017-11-23T05:10:19.385Z,9.01
2017-11-23T05:12:47.753Z,8.97
2017-11-23T05:15:16.096Z,8.90
2017-11-23T05:17:44.431Z,8.85
2017-11-23T05:20:12.813Z,8.81
2017-11-23T05:22:41.152Z,8.74
2017-11-23T05:25:09.491Z,8.79
2017-11-23T05:27:37.833Z,8.72
2017-11-23T05:30:06.164Z,8.68
2017-11-23T05:32:34.526Z,8.54
2017-11-23T05:35:02.868Z,8.61
2017-11-23T05:37:31.216Z,8.39
2017-11-23T05:39:59.555Z,8.32
2017-11-23T05:42:27.891Z,8.23
2017-11-23T05:44:56.255Z,8.17
2017-11-23T05:47:24.620Z,8.24
2017-11-23T05:49:52.959Z,8.21
2017-11-23T05:52:21.308Z,8.30
2017-11-23T05:54:49.653Z,8.35
2017-11-23T05:57:18.020Z,8.51
2017-11-23T05:59:46.362Z,8.67
2017-11-23T06:02:14.715Z,8.51
2017-11-23T06:04:43.047Z,8.34
2017-11-23T06:07:11.389Z,8.45
2017-11-23T06:09:39.768Z,8.55
2017-11-23T06:12:08.109Z,8.60
2017-11-23T06:14:36.559Z,8.27
2017-11-23T06:17:04.916Z,8.30
2017-11-23T06:19:33.267Z,8.13
2017-11-23T06:22:01.656Z,8.49
2017-11-23T06:24:30.089Z,8.42
2017-11-23T06:26:58.421Z,8.28
2017-11-23T06:29:26.764Z,8.47
2017-11-23T06:31:55.095Z,8.35
2017-11-23T06:34:23.561Z,8.44
2017-11-23T06:36:51.973Z,8.50
2017-11-23T06:39:20.315Z,8.56
2017-11-23T06:41:49.468Z,8.45
2017-11-23T06:44:17.944Z,8.36
2017-11-23T06:46:46.431Z,8.47
2017-11-23T06:49:14.827Z,8.48
2017-11-23T06:51:43.199Z,8.57
2017-11-23T06:54:11.544Z,8.57
2017-11-23T06:56:39.902Z,8.77
2017-11-23T06:59:08.285Z,8.87
2017-11-23T07:01:36.636Z,9.09
2017-11-23T07:04:04.979Z,8.77
2017-11-23T07:06:33.318Z,8.86
2017-11-23T07:09:01.663Z,8.93
2017-11-23T07:11:30.086Z,8.99
2017-11-23T07:13:58.440Z,8.82
2017-11-23T07:16:26.781Z,9.05
2017-11-23T07:18:55.136Z,9.04
2017-11-23T07:21:23.474Z,9.30
2017-11-23T07:23:51.838Z,9.24
2017-11-23T07:26:20.176Z,9.26
2017-11-23T07:28:52.460Z,9.25
2017-11-23T07:31:20.805Z,8.96
2017-11-23T07:33:49.154Z,8.90
2017-11-23T07:36:17.502Z,8.94
2017-11-23T07:38:45.870Z,9.20
2017-11-23T07:41:14.254Z,9.09
2017-11-23T07:43:42.604Z,9.24
2017-11-23T07:46:10.940Z,9.09
2017-11-23T07:48:39.316Z,8.96
2017-11-23T07:51:07.658Z,9.14
2017-11-23T07:53:36.004Z,9.14
2017-11-23T07:56:04.341Z,9.37
2017-11-23T07:58:32.712Z,9.64
2017-11-23T08:01:01.184Z,9.80
2017-11-23T08:03:29.525Z,9.78
2017-11-23T08:05:57.860Z,9.61
2017-11-23T08:08:26.191Z,9.93
2017-11-23T08:10:54.532Z,9.99
2017-11-23T08:13:22.901Z,10.24
2017-11-23T08:15:51.248Z,10.28
2017-11-23T08:18:19.589Z,10.32
2017-11-23T08:20:47.923Z,10.39
2017-11-23T08:23:16.273Z,10.59
2017-11-23T08:25:44.650Z,10.54
2017-11-23T08:28:12.996Z,10.77
2017-11-23T08:30:41.335Z,10.66
2017-11-23T08:33:09.692Z,10.70
2017-11-23T08:35:38.040Z,10.86
2017-11-23T08:38:06.511Z,10.92
2017-11-23T08:40:34.851Z,11.03
2017-11-23T08:43:03.193Z,11.51
2017-11-23T08:45:31.542Z,11.12
2017-11-23T08:47:59.912Z,11.28
2017-11-23T08:50:28.288Z,11.26
2017-11-23T08:52:57.524Z,11.36
2017-11-23T08:55:26.773Z,11.39
2017-11-23T08:57:55.120Z,11.25
2017-11-23T09:00:23.461Z,11.26
2017-11-23T09:02:51.836Z,11.61
2017-11-23T09:05:20.180Z,11.42
2017-11-23T09:07:48.520Z,11.53
2017-11-23T09:10:16.865Z,11.74
2017-11-23T09:12:45.209Z,11.64
2017-11-23T09:15:13.579Z,11.53
2017-11-23T09:17:41.932Z,11.74
2017-11-23T09:20:10.270Z,11.80
2017-11-23T09:22:38.617Z,11.81
2017-11-23T09:25:06.953Z,11.53
2017-11-23T09:27:35.794Z,11.78
2017-11-23T09:30:04.147Z,12.85
2017-11-23T09:32:32.482Z,13.26
2017-11-23T09:35:00.828Z,12.92
2017-11-23T09:37:29.165Z,13.49
2017-11-23T09:39:57.546Z,14.04
2017-11-23T09:42:25.879Z,14.58
2017-11-23T09:44:54.220Z,14.83
2017-11-23T09:47:22.575Z,14.27
2017-11-23T09:49:50.916Z,14.26
2017-11-23T09:52:19.384Z,14.13
2017-11-23T09:54:47.715Z,13.97
2017-11-23T09:57:16.060Z,14.19
2017-11-23T09:59:44.407Z,14.62
2017-11-23T10:02:12.736Z,14.65
2017-11-23T10:04:41.115Z,15.32
2017-11-23T10:07:09.468Z,14.83
2017-11-23T10:09:37.812Z,15.31
2017-11-23T10:12:06.160Z,15.15
2017-11-23T10:14:40.105Z,14.60
2017-11-23T10:17:08.443Z,14.61
2017-11-23T10:19:36.783Z,14.72
2017-11-23T10:22:05.121Z,14.96
2017-11-23T10:24:33.472Z,15.62
2017-11-23T10:27:01.812Z,15.64
2017-11-23T10:29:30.148Z,15.12
2017-11-23T10:31:58.596Z,15.25
2017-11-23T10:34:26.940Z,15.36
2017-11-23T10:36:55.279Z,14.81
2017-11-23T10:39:23.679Z,14.55
2017-11-23T10:41:52.044Z,14.31
2017-11-23T10:44:20.415Z,13.75
2017-11-23T10:46:48.784Z,14.13
2017-11-23T10:49:17.130Z,13.80
2017-11-23T10:51:45.470Z,13.85
2017-11-23T10:54:13.852Z,14.02
2017-11-23T10:56:42.206Z,13.91
2017-11-23T10:59:10.545Z,13.77
2017-11-23T11:01:38.917Z,13.40
2017-11-23T11:04:07.253Z,13.60
2017-11-23T11:06:35.594Z,13.29
2017-11-23T11:09:03.934Z,13.77
2017-11-23T11:11:32.283Z,13.51
2017-11-23T11:14:00.664Z,13.44
2017-11-23T11:16:29.013Z,13.27
2017-11-23T11:18:57.354Z,13.29
2017-11-23T11:21:25.696Z,13.13
2017-11-23T11:23:54.065Z,12.75
2017-11-23T11:26:22.531Z,12.86
2017-11-23T11:28:50.874Z,12.78
2017-11-23T11:31:19.215Z,12.75
2017-11-23T11:33:47.572Z,12.62
2017-11-23T11:36:15.909Z,12.64
2017-11-23T11:38:44.278Z,12.73
2017-11-23T11:41:12.628Z,12.56
2017-11-23T11:43:40.967Z,12.48
2017-11-23T11:46:09.307Z,12.51
2017-11-23T11:48:37.646Z,12.62
2017-11-23T11:51:06.050Z,12.45
2017-11-23T11:53:34.389Z,12.44
2017-11-23T11:56:02.732Z,12.38
2017-11-23T11:58:31.074Z,12.16
2017-11-23T12:00:59.424Z,12.16
2017-11-23T12:03:27.801Z,11.95
2017-11-23T12:05:56.151Z,12.07
2017-11-23T12:08:24.552Z,11.85
2017-11-23T12:10:52.892Z,11.91
2017-11-23T12:13:21.345Z,11.76
2017-11-23T12:16:01.232Z,11.70
2017-11-23T12:21:42.107Z,11.77
2017-11-23T12:24:12.272Z,11.94
2017-11-23T12:29:34.027Z,12.72
2017-11-23T12:32:02.377Z,12.32
2017-11-23T12:34:30.810Z,12.33
2017-11-23T12:36:59.152Z,12.10
2017-11-23T12:39:36.104Z,12.21
2017-11-23T12:42:04.439Z,12.25
2017-11-23T12:44:32.780Z,12.11
2017-11-23T12:47:01.133Z,12.03
2017-11-23T12:49:29.476Z,12.12
2017-11-23T12:51:57.849Z,12.11
2017-11-23T12:54:26.205Z,12.06
2017-11-23T12:56:54.552Z,11.97
2017-11-23T12:59:22.892Z,11.83
2017-11-23T13:01:51.241Z,11.86
2017-11-23T13:04:19.617Z,11.91
2017-11-23T13:06:47.961Z,11.89
2017-11-23T13:09:16.298Z,12.09
2017-11-23T13:11:44.640Z,12.24
2017-11-23T13:14:12.983Z,12.09
2017-11-23T13:16:41.353Z,12.12
2017-11-23T13:19:09.693Z,12.16
2017-11-23T13:21:38.050Z,12.02
2017-11-23T13:24:06.395Z,12.42
2017-11-23T13:26:34.735Z,12.30
2017-11-23T13:29:03.119Z,12.19
2017-11-23T13:31:31.464Z,12.23
2017-11-23T13:33:59.815Z,12.04
2017-11-23T13:36:28.179Z,11.97
2017-11-23T13:38:56.515Z,12.05
2017-11-23T13:41:24.901Z,12.21
2017-11-23T13:43:53.246Z,12.03
2017-11-23T13:46:21.588Z,12.09
2017-11-23T13:48:49.932Z,12.16
2017-11-23T13:51:18.274Z,12.09
2017-11-23T13:53:46.640Z,12.05
2017-11-23T13:56:14.976Z,12.07
2017-11-23T13:58:43.314Z,12.04
2017-11-23T14:01:11.667Z,12.21
2017-11-23T14:03:40.008Z,12.31
2017-11-23T14:06:08.404Z,12.29
2017-11-23T14:08:36.746Z,12.25
2017-11-23T14:11:05.084Z,12.31
2017-11-23T14:13:33.427Z,12.12
2017-11-23T14:16:01.765Z,12.26
2017-11-23T14:18:30.238Z,12.32
2017-11-23T14:20:58.579Z,12.48
2017-11-23T14:23:26.927Z,12.45
2017-11-23T14:25:55.267Z,12.40
2017-11-23T14:28:23.604Z,12.44
2017-11-23T14:30:51.976Z,12.63
2017-11-23T14:33:20.330Z,12.64
2017-11-23T14:35:48.677Z,12.78
2017-11-23T14:38:17.029Z,12.57
2017-11-23T14:40:46.286Z,12.61
2017-11-23T14:43:14.660Z,12.70
2017-11-23T14:45:43.018Z,12.94
2017-11-23T14:48:11.373Z,12.74
2017-11-23T14:50:39.708Z,12.86
2017-11-23T14:53:08.073Z,12.89
2017-11-23T14:55:36.461Z,12.79
2017-11-23T14:58:04.798Z,12.77
2017-11-23T15:00:33.131Z,12.65
2017-11-23T15:03:01.473Z,12.69
2017-11-23T15:05:29.839Z,12.81
2017-11-23T15:07:58.230Z,12.82
2017-11-23T15:10:26.579Z,12.84
2017-11-23T15:12:54.925Z,12.62
2017-11-23T15:15:23.263Z,12.66
2017-11-23T15:17:51.620Z,12.69
2017-11-23T15:20:19.994Z,12.96
2017-11-23T15:22:48.335Z,12.98
2017-11-23T15:25:16.681Z,12.62
2017-11-23T15:27:45.024Z,12.86
2017-11-23T15:30:13.364Z,12.78
2017-11-23T15:32:41.822Z,12.61
2017-11-23T15:35:10.175Z,12.46
2017-11-23T15:37:38.526Z,12.58
2017-11-23T15:40:06.868Z,12.61
2017-11-23T15:42:35.227Z,12.69
2017-11-23T15:45:03.634Z,12.69
2017-11-23T15:47:31.983Z,12.47
2017-11-23T15:50:00.325Z,12.74
2017-11-23T15:52:28.663Z,13.02
2017-11-23T15:54:56.998Z,12.70
2017-11-23T15:57:25.369Z,12.40
2017-11-23T15:59:53.719Z,12.59
2017-11-23T16:02:22.057Z,12.87
2017-11-23T16:04:50.409Z,12.71
2017-11-23T16:07:18.739Z,12.78
2017-11-23T16:09:47.146Z,12.78
2017-11-23T16:12:15.635Z,12.76
2017-11-23T16:14:44.069Z,12.70
2017-11-23T16:17:12.449Z,12.77
2017-11-23T16:19:40.795Z,12.60
2017-11-23T16:22:09.152Z,12.71
2017-11-23T16:24:37.500Z,12.80
2017-11-23T16:27:05.980Z,12.97
2017-11-23T16:29:35.760Z,12.97
2017-11-23T16:32:04.885Z,12.93
2017-11-23T16:34:33.230Z,12.87
2017-11-23T16:37:03.331Z,12.91
2017-11-23T16:39:36.132Z,13.14
2017-11-23T16:42:09.964Z,12.74
2017-11-23T16:44:59.220Z,13.09
2017-11-23T16:50:52.227Z,12.79
2017-11-23T16:53:27.173Z,12.97
2017-11-23T16:56:01.186Z,13.06
2017-11-23T17:01:36.161Z,13.17
2017-11-23T17:04:05.339Z,13.02
2017-11-23T17:06:39.238Z,13.09
2017-11-23T17:09:07.868Z,12.83
2017-11-23T17:11:41.721Z,12.88
2017-11-23T17:14:15.660Z,12.68
2017-11-23T17:16:49.680Z,12.82
2017-11-23T17:19:18.513Z,13.10
2017-11-23T17:21:46.858Z,12.90
2017-11-23T17:24:15.192Z,12.87
2017-11-23T17:26:43.528Z,13.00
2017-11-23T17:29:11.906Z,12.84
2017-11-23T17:31:41.184Z,12.82
2017-11-23T17:34:09.512Z,12.95
2017-11-23T17:36:37.849Z,13.03
2017-11-23T17:39:06.204Z,12.83
2017-11-23T17:41:34.587Z,12.89
2017-11-23T17:44:02.929Z,12.74
2017-11-23T17:46:31.268Z,13.15
2017-11-23T17:48:59.606Z,13.01
2017-11-23T17:51:27.951Z,13.13
2017-11-23T17:53:56.320Z,12.93
2017-11-23T17:56:24.657Z,13.01
2017-11-23T17:58:52.991Z,13.22
2017-11-23T18:01:21.349Z,13.13
2017-11-23T18:03:49.707Z,13.10
2017-11-23T18:06:18.070Z,13.06
2017-11-23T18:08:46.403Z,13.21
2017-11-23T18:11:14.744Z,12.95
2017-11-23T18:13:43.090Z,13.02
2017-11-23T18:16:11.425Z,13.06
2017-11-23T18:18:39.762Z,13.11
2017-11-23T18:21:08.102Z,13.23
2017-11-23T18:23:36.482Z,13.22
2017-11-23T18:26:05.189Z,13.53
2017-11-23T18:28:33.572Z,13.52
2017-11-23T18:31:01.909Z,13.48
2017-11-23T18:33:30.248Z,13.15
2017-11-23T18:35:58.656Z,12.99
2017-11-23T18:38:27.035Z,13.35
2017-11-23T18:40:55.417Z,13.12
2017-11-23T18:43:23.782Z,13.48
2017-11-23T18:45:52.143Z,13.30
2017-11-23T18:48:20.519Z,13.15
2017-11-23T18:50:49.759Z,13.24
2017-11-23T18:53:18.097Z,13.35
2017-11-23T18:55:46.447Z,13.46
2017-11-23T18:58:14.791Z,13.23
2017-11-23T19:00:43.312Z,13.39
2017-11-23T19:03:11.661Z,13.25
2017-11-23T19:05:40.018Z,13.31
2017-11-23T19:08:08.347Z,13.42
2017-11-23T19:10:36.697Z,13.51
2017-11-23T19:13:05.086Z,13.65
2017-11-23T19:15:33.449Z,13.36
2017-11-23T19:18:01.781Z,13.25
2017-11-23T19:20:30.130Z,13.43
2017-11-23T19:22:58.479Z,13.27
2017-11-23T19:25:26.872Z,13.50
2017-11-23T19:27:55.220Z,12.87
2017-11-23T19:30:23.568Z,12.77
2017-11-23T19:32:51.909Z,12.79
2017-11-23T19:35:20.253Z,12.86
2017-11-23T19:37:48.719Z,12.40
2017-11-23T19:40:17.069Z,12.87
2017-11-23T19:42:45.400Z,12.87
2017-11-23T19:45:13.799Z,12.62
2017-11-23T19:47:42.157Z,12.78
2017-11-23T19:50:10.489Z,12.69
2017-11-23T19:52:38.834Z,12.86
2017-11-23T19:55:07.208Z,12.70
2017-11-23T19:57:35.561Z,12.61
2017-11-23T20:00:03.891Z,12.44
2017-11-23T20:02:32.250Z,12.38
2017-11-23T20:05:00.598Z,12.40
2017-11-23T20:07:28.932Z,12.30
2017-11-23T20:09:57.282Z,12.31
2017-11-23T20:12:25.628Z,12.07
2017-11-23T20:14:53.968Z,12.07
2017-11-23T20:17:22.324Z,12.30
2017-11-23T20:20:10.280Z,12.17
2017-11-23T20:22:38.783Z,12.30
2017-11-23T20:25:07.132Z,12.00
2017-11-23T20:27:35.815Z,11.89
2017-11-23T20:30:04.209Z,11.92
2017-11-23T20:32:32.556Z,12.08
2017-11-23T20:35:00.911Z,12.10
2017-11-23T20:37:29.390Z,12.10
2017-11-23T20:39:57.752Z,11.68
2017-11-23T20:42:26.097Z,11.52
2017-11-23T20:44:54.542Z,11.53
2017-11-23T20:47:22.889Z,11.47
2017-11-23T20:49:51.228Z,11.65
2017-11-23T20:52:19.605Z,11.65
2017-11-23T20:54:47.946Z,11.38
2017-11-23T20:57:16.284Z,11.65
2017-11-23T20:59:44.632Z,11.95
2017-11-23T21:02:12.977Z,11.75
2017-11-23T21:04:41.421Z,11.82
2017-11-23T21:07:09.761Z,11.65
2017-11-23T21:09:38.103Z,11.73
2017-11-23T21:12:06.493Z,11.54
2017-11-23T21:14:34.840Z,11.50
2017-11-23T21:17:03.188Z,11.28
2017-11-23T21:19:31.530Z,11.16
2017-11-23T21:21:59.868Z,11.16
2017-11-23T21:24:28.237Z,11.12
2017-11-23T21:26:56.589Z,10.97
2017-11-23T21:29:24.957Z,10.97
2017-11-23T21:31:53.305Z,10.96
2017-11-23T21:34:21.645Z,11.04
2017-11-23T21:36:50.111Z,11.09
2017-11-23T21:39:18.541Z,11.11
2017-11-23T21:41:46.910Z,11.07
2017-11-23T21:44:15.259Z,10.80
2017-11-23T21:46:43.601Z,11.00
2017-11-23T21:49:11.976Z,11.01
2017-11-23T21:51:40.348Z,10.79
2017-11-23T21:54:08.688Z,10.95
2017-11-23T21:56:37.047Z,10.86
2017-11-23T21:59:05.400Z,11.13
2017-11-23T22:01:33.776Z,10.90
2017-11-23T22:04:02.125Z,11.20
2017-11-23T22:06:30.475Z,10.72
2017-11-23T22:08:58.813Z,10.88
2017-11-23T22:11:27.275Z,10.69
2017-11-23T22:13:55.704Z,10.66
2017-11-23T22:16:24.085Z,10.51
2017-11-23T22:18:52.456Z,10.60
2017-11-23T22:21:20.804Z,10.53
2017-11-23T22:23:49.164Z,10.47
2017-11-23T22:26:17.519Z,10.66
2017-11-23T22:28:45.866Z,10.62
2017-11-23T22:31:14.243Z,10.43
2017-11-23T22:33:42.588Z,10.55
2017-11-23T22:36:10.943Z,10.45
2017-11-23T22:38:39.290Z,10.55
2017-11-23T22:41:07.658Z,10.35
2017-11-23T22:43:36.145Z,10.42
2017-11-23T22:46:04.487Z,10.38
2017-11-23T22:48:32.885Z,10.42
2017-11-23T22:51:01.232Z,10.65
2017-11-23T22:53:29.585Z,10.33
2017-11-23T22:55:57.967Z,10.42
2017-11-23T22:58:26.323Z,10.09
2017-11-23T23:00:54.673Z,10.43
2017-11-23T23:03:23.024Z,10.55
2017-11-23T23:05:51.387Z,10.61
2017-11-23T23:08:19.761Z,10.10
2017-11-23T23:10:49.270Z,9.96
2017-11-23T23:13:17.792Z,10.02
2017-11-23T23:15:46.419Z,9.93
2017-11-23T23:18:14.766Z,10.01
2017-11-23T23:20:43.161Z,9.88
2017-11-23T23:23:11.490Z,9.91
2017-11-23T23:25:39.843Z,9.90
2017-11-23T23:28:08.195Z,9.98
2017-11-23T23:30:36.540Z,10.15
2017-11-23T23:33:04.919Z,10.15
2017-11-23T23:35:33.277Z,10.18
2017-11-23T23:38:01.652Z,10.21
2017-11-23T23:40:30.004Z,10.56
2017-11-23T23:42:58.351Z,10.61
2017-11-23T23:45:26.700Z,10.22
2017-11-23T23:47:55.048Z,10.37
2017-11-23T23:50:23.429Z,10.39
2017-11-23T23:52:51.780Z,10.36
2017-11-23T23:55:20.119Z,10.66
2017-11-23T23:57:48.470Z,10.50
